NWS Home NWS Lubbock West Texas Mesonet Three hour changes as of 0947 PM, Wed Jul 08, 2020

Latest   N   C   S   Daily Sum   3hrΔ   24hrΔ   Soil Data 
Site Map   24hr Precip   72hr Precip   Google Plot


Station Time of Last Temp Now Temp 3h ago Delta-T Dewpoint Now Dewpoint 3hr ago Delta-Td 3hr Press Change (mB)
Reese Center  09:40 PM 91.1 98.5 -7.4 55.7 56.5 -0.8 0.4
Abernathy  09:40 PM 87.8 98.7 -10.9 57.3 55 2.3 0.2
Plainview  09:40 PM 89 98.7 -9.7 55.4 54.8 0.6 0.2
Tahoka  09:40 PM 90.3 99.3 -9 57.4 56 1.4 0.5
Slaton  09:40 PM 88.6 98.2 -9.5 57.5 56.2 1.4 0.5
Levelland  09:40 PM 90.3 97.8 -7.5 55.9 54.8 1 0.6
Roaring Springs  09:40 PM 88.9 99.6 -10.7 59.1 58.7 0.4 0.3
Floydada  09:40 PM 87.3 98.1 -10.7 54.6 52.8 1.8 0.1
Ralls  09:40 PM 86.2 97.3 -11.1 56.1 53.5 2.6 0.2
Brownfield  09:40 PM 91 100.4 -9.5 55.8 54.2 1.6 0.5
Muleshoe  09:40 PM 85.2 101.8 -16.5 53.5 39.1 14.4 0.1
Morton  09:40 PM 90.9 101.5 -10.6 50.9 47.2 3.7 0.3
Comanche Springs  09:40 PM 90.5 100.9 -10.4 68.1 64.7 3.3 0.6
O'Donnell  09:40 PM 88.3 98.3 -10 59.1 57.6 1.5 0.5
Seagraves  09:40 PM 90.1 100.1 -10 57.1 55.7 1.4 0.6
Amherst  09:40 PM 89.8 99.6 -9.8 55.1 52.8 2.3 0.3
Plains  09:40 PM 90.9 98.7 -7.8 54.3 50 4.3 0.4
Lamesa  09:40 PM 89.7 99.7 -10 55.4 53.4 2 0.5
Hart  09:40 PM 85.9 98.6 -12.7 56.7 53.7 3 0.1
Friona  09:40 PM 81 101.3 -20.3 49.5 37.7 11.8 0
Dimmitt  09:40 PM 87.8 99.4 -11.6 56.6 52.4 4.1 0
Tulia  09:40 PM 88.2 97.1 -8.9 57.3 56.5 0.8 0.1
Silverton  09:40 PM 89.5 98.9 -9.5 56.9 55.5 1.4 0
Post  09:40 PM 88.8 99.1 -10.2 58 52.1 5.9 0.6
Seminole  09:40 PM 89.3 100.1 -10.8 52 49.7 2.3 0.5
Gail  09:40 PM 88 100.1 -12.1 58.9 53.8 5.1 0.7
White River Lake  09:40 PM 87.9 98.8 -10.9 58.5 58 0.5 0.5
Graham  09:40 PM 89.4 97.7 -8.4 55.3 51.5 3.7 0.6
Sundown  09:40 PM 88.8 99.2 -10.4 52.6 48 4.6 0.4
Anton  09:40 PM 90.7 100.6 -9.9 55.5 53.9 1.6 0.3
Fluvanna  09:40 PM 89.3 98.3 -9 62.5 57 5.4 0.7
Spur  09:40 PM 88.3 100.4 -12.1 62 58.3 3.7 0.5
Northwest Lubbock  09:40 PM 92.2 100.1 -7.9 55.3 54.9 0.4 0.3
Guthrie  09:40 PM 90 100.4 -10.5 64.5 55 9.4 0.6
Clarendon  09:40 PM 89.2 98.3 -9.1 58 55.8 2.2 0.1
Paducah  09:40 PM 90.1 99.3 -9.2 64.9 59.5 5.4 0.6
Snyder  09:40 PM 88.3 98.3 -10 64.7 61.6 3.1 0.7
Memphis  09:40 PM 91.3 99.5 -8.2 58.1 59.3 -1.3 0.3
Jayton  09:40 PM 91.3 102.2 -10.9 67.4 56.5 10.9 0.8
Pampa  09:40 PM 87.3 97.9 -10.6 60.1 56.5 3.5 0.1
Aspermont  09:40 PM 91.5 99.8 -8.3 68.6 66.9 1.7 0.9
Hereford  09:40 PM 89.4 100 -10.6 56 47 8.9 -0.1
Goodlett  09:40 PM 91.4 101.4 -10 65.5 62.8 2.7 0
McLean  09:40 PM 88.6 96.9 -8.3 58 60.3 -2.4 0.1
Denver City  09:40 PM 88.5 99.3 -10.8 50.1 44.5 5.5 0.4
Lake Alan Henry  09:40 PM 91.2 101.4 -10.2 66.1 56.5 9.6 0.6
Wolfforth  09:40 PM 88.6 98.9 -10.3 56.9 55.3 1.6 0.4
Andrews  09:40 PM 91.7 101.1 -9.4 54.4 53.5 1 0.5
Turkey  09:40 PM 91.7 101.7 -10 58.6 57.8 0.8 0.1
Childress  09:40 PM 90.7 99.4 -8.7 64.8 58.9 5.9 0
Tatum  09:40 PM 86.7 98 -11.3 47.7 43.4 4.3 0
Northfield  09:40 PM 91.2 102.2 -10.9 56.4 54.6 1.8 0.2
Dora  09:40 PM 82.7 99.4 -16.7 44.8 36.1 8.7 0
Northwest San Angelo  09:40 PM 86.7 98.1 -11.4 65.9 62.5 3.4 0.9
Saint Lawrence  09:40 PM 91.3 99.5 -8.2 59.9 56.4 3.5 0.9
Haskell  09:40 PM 90.6 97.7 -7.1 68.2 64.5 3.7 0.6
Wall  09:40 PM 86.3 91.5 -5.2 66.9 70.3 -3.4 0.6
Seymour  09:40 PM 88.4 98.9 -10.5 73.7 68.8 5 0.7
Knox City  09:40 PM 92.7 102 -9.2 68.5 64.9 3.6 0.7
Guadalupe Mtns Park  09:40 PM 78.7 91.9 -13.2 53.4 47.3 6.1 1.1
Caprock Canyons   09:40 PM 91.5 100.4 -8.9 55.3 53.9 1.4 0.1
Odell  09:40 PM 88.6 97.2 -8.7 75.1 71.6 3.5 0.3
Coyanosa  09:40 PM 94.5 103.6 -9.1 59.1 52.7 6.4 1.2
Big Lake  09:40 PM 89.2 97.4 -8.2 63 60.1 3 0.8
Junction  09:40 PM 89.9 97.8 -7.8 64 66.5 -2.5 1.2
Hobbs  09:40 PM 92 99.2 -7.2 46.6 45 1.5 0.3
Canadian  09:40 PM 89.1 99.5 -10.4 65.1 64.8 0.4 0.4
Palo Duro Canyon State Park Rim  09:40 PM 91.2 100 -8.8 56.7 57.2 -0.5 0.3
Bootleg  09:40 PM 79.6 97.7 -18.1 48.3 39.3 9 0
Sterling City  09:40 PM 90.2 99.9 -9.7 61.1 61.1 0 0.9
Mertzon  09:40 PM 86.3 97.4 -11.1 66 63.7 2.3 0.5
Persimmon Gap  09:40 PM 93.5 101 -7.6 60 53.4 6.6 1.2
Weinert  09:40 PM 91.7 100.5 -8.9 68.4 66 2.4 0.7
Claude 12 Southwest  09:40 PM 91.2 100.2 -8.9 56.7 55.8 0.9 0.3
Amarillo 7 South Southeast  09:40 PM 89 101.1 -12.1 57.2 55.8 1.4 0.4
Umbarger  09:40 PM 88.4 96.9 -8.5 57.8 56.2 1.6 0.1
Lomax  09:40 PM 92.2 100.8 -8.6 60.4 54.8 5.6 0.7
Amarillo 9 North Northeast  09:40 PM 91.9 100.5 -8.5 57.2 54.7 2.6 0.1
Aiken  09:40 PM 86.6 97 -10.5 59.8 59.9 -0.1 0
Sweetwater  09:40 PM 85.4 97.2 -11.8 65.4 61.9 3.5 0.9
Dozier  09:40 PM 90.9 100.1 -9.1 65.8 62.6 3.3 0.2
Amarillo 15 North Northwest  09:40 PM 93.3 102.5 -9.2 56 48.8 7.2 0
Menard  09:40 PM 88.1 93.8 -5.7 67.1 67.5 -0.4 0.9
Tarzan  09:40 PM 91.9 100.6 -8.6 60.5 58.2 2.3 0.7
Goodnight  09:40 PM 88.9 99.9 -11 57 55.2 1.8 0.1
Boys Ranch   09:40 PM 91.6 104.1 -12.5 50.4 44.8 5.6 0
Fort McKavett  09:40 PM 89.6 96.7 -7.1 64.9 66.6 -1.8 0.7
Fort Chadbourne  09:40 PM 84.3 93.6 -9.3 68.6 67.9 0.7 0.7
Palo Duro Canyon State Park Floor  09:40 PM 94.7 102.8 -8.1 58.1 57.7 0.4 0.4
Fort Lancaster  09:40 PM 92 99.5 -7.5 65.5 64.5 1 0.7
Dell City 1N  09:40 PM 91.9 101.4 -9.5 53.4 47 6.5 0.3
Clyde  09:40 PM 83.8 94.8 -11 69.6 69.6 0 0.5
Snyder SSW  09:40 PM 89.5 99.8 -10.3 66.5 63.4 3.1 0.9
Panhandle  09:40 PM 85.4 97.3 -11.9 58.3 58.2 0.1 0.1
Vigo Park  09:40 PM 87 98 -11 58.3 58.1 0.3 -0.1
Welch  09:40 PM 89.1 100.4 -11.3 58.9 56.9 2 0.5
Throckmorton  09:40 PM 88.5 97.2 -8.7 71.5 71.6 -0.1 0.8
Sierra Blanca  09:40 PM 87.2 96.1 -8.9 49.9 47.8 2.1 0.6
Fort Lewis CO  09:40 PM 62.9 81.7 -18.8 35.3 29.4 5.9 -0.1
New Home  09:40 PM 89.1 98.5 -9.4 57.5 56.3 1.2 0.5
McCamey  09:40 PM 93.3 100.5 -7.1 61.6 60.2 1.4 1.1
Stamford  09:40 PM 90.4 98.7 -8.3 69.3 68.5 0.8 0.8
Crowell  09:40 PM 91.4 99.9 -8.6 68.5 67.2 1.3 0.6
Stinnett  09:40 PM 92.2 100.9 -8.7 56 56.4 -0.3 0.3
Colorado City  09:40 PM 89 99 -10 67.1 64.9 2.2 0.9
Happy  09:40 PM 87.4 98.8 -11.4 57.7 57.9 -0.2 0.2
Endee  09:40 PM 85.5 101.1 -15.6 49 42.8 6.1 0
JA Ranch  09:40 PM 90.8 101.9 -11.1 60.5 56.9 3.6 0.2
Adrian  09:40 PM 84 99.9 -15.9 41.3 43.4 -2.1 -0.2
Lesley  09:40 PM 92.1 102.3 -10.2 62 61.4 0.6 0.3
Earth  09:40 PM 88 99.3 -11.3 57 53 4 0.3
Van Horn  09:40 PM 92.7 99.9 -7.2 50.3 53.2 -2.8 0.3
Rotan  09:40 PM 90.4 101.8 -11.4 66.1 62.4 3.7 1.1
Fritch  09:40 PM 91.1 101.2 -10.1 58.1 56.3 1.9 0
Estelline  09:40 PM 90.6 100.1 -9.5 65.2 63.6 1.6 0
Crane  09:40 PM 94.6 101.4 -6.8 60.2 58.6 1.5 1.1
Hackberry  09:40 PM 91.3 101.2 -10 67.3 63.1 4.2 0.5
Romero 11SSW  09:40 PM 89.3 101.5 -12.3 42.8 42 0.8 -0.1
Palo Duro Reservoir 1NW  09:40 PM 89.8 102.5 -12.7 60.9 53.1 7.8 0.2
South Plains 3ENE  09:40 PM 86.3 98.3 -12.1 58.4 58.6 -0.2 -0.2
Lake McClellan 2NW  09:40 PM 87.1 96.4 -9.3 60.2 61 -0.8 0.2
Segovia 7SSW  09:40 PM 86.8 94.3 -7.5 63.1 64.5 -1.4 1.1
Castolon 1NW BBNP  09:40 PM 98.2 105.7 -7.5 58 56.7 1.3 1.5
Smyer  09:40 PM 90.5 98.2 -7.7 57 56.2 0.8 0.4
Doole 3WNW  09:40 PM 83 85 -2.1 69.8 68 1.7 0
Stratford  09:40 PM 80.5 99.1 -18.7 57.6 50.7 6.9 -0.4
Truscott  09:40 PM 91.7 99.9 -8.2 67.9 66.1 1.8 0.7
Hefner  09:40 PM 90.4 100.3 -9.8 67.7 65.4 2.4 0.6
Kent I10-I20 Split  09:40 PM 90 98.4 -8.4 53.9 50.6 3.2 0.9
Olton  09:40 PM 85.9 98.3 -12.4 58.4 56.3 2.1 0.3
McAdoo  09:40 PM 88.1 97.2 -9.1 61.6 59.8 1.8 0.1
Borger  09:40 PM 89.4 100.9 -11.4 58.7 54.4 4.3 0.2

West Texas Mesonet Home   Site Map/Menu  NWS Lubbock Soil Data  Daily Summary Page  24hr Precip  72hr Precip  Google Plot